sensor_id;sensor_type;location;lat;lon;timestamp;P1;durP1;ratioP1;P2;durP2;ratioP2
7517;SDS011;3800;48.922;9.444;2023-11-21T00:00:08;2.70;;;1.47;;
7517;SDS011;3800;48.922;9.444;2023-11-21T00:02:38;4.60;;;1.83;;
7517;SDS011;3800;48.922;9.444;2023-11-21T00:05:08;2.73;;;1.80;;
7517;SDS011;3800;48.922;9.444;2023-11-21T00:07:37;3.50;;;2.03;;
7517;SDS011;3800;48.922;9.444;2023-11-21T00:10:04;2.00;;;1.60;;
7517;SDS011;3800;48.922;9.444;2023-11-21T00:12:34;1.77;;;1.60;;
7517;SDS011;3800;48.922;9.444;2023-11-21T00:15:02;2.90;;;1.60;;
7517;SDS011;3800;48.922;9.444;2023-11-21T00:17:31;2.57;;;1.60;;
7517;SDS011;3800;48.922;9.444;2023-11-21T00:19:59;2.13;;;1.67;;
7517;SDS011;3800;48.922;9.444;2023-11-21T00:22:27;4.73;;;1.90;;
7517;SDS011;3800;48.922;9.444;2023-11-21T00:24:56;5.43;;;2.40;;
7517;SDS011;3800;48.922;9.444;2023-11-21T00:27:24;5.50;;;2.37;;
7517;SDS011;3800;48.922;9.444;2023-11-21T00:29:53;4.07;;;2.23;;
7517;SDS011;3800;48.922;9.444;2023-11-21T00:32:21;6.33;;;2.00;;
7517;SDS011;3800;48.922;9.444;2023-11-21T00:34:50;4.90;;;2.33;;
7517;SDS011;3800;48.922;9.444;2023-11-21T00:37:19;8.00;;;2.17;;
7517;SDS011;3800;48.922;9.444;2023-11-21T00:39:47;3.70;;;2.13;;
7517;SDS011;3800;48.922;9.444;2023-11-21T00:42:15;7.03;;;2.33;;
7517;SDS011;3800;48.922;9.444;2023-11-21T00:44:43;3.70;;;1.77;;
7517;SDS011;3800;48.922;9.444;2023-11-21T00:47:12;3.57;;;1.80;;
7517;SDS011;3800;48.922;9.444;2023-11-21T00:49:41;6.00;;;2.40;;
7517;SDS011;3800;48.922;9.444;2023-11-21T00:52:09;6.33;;;2.30;;
7517;SDS011;3800;48.922;9.444;2023-11-21T00:54:37;4.07;;;2.07;;
7517;SDS011;3800;48.922;9.444;2023-11-21T00:57:05;4.93;;;1.87;;
7517;SDS011;3800;48.922;9.444;2023-11-21T00:59:34;3.80;;;1.83;;
7517;SDS011;3800;48.922;9.444;2023-11-21T01:02:03;5.83;;;2.07;;
7517;SDS011;3800;48.922;9.444;2023-11-21T01:04:32;4.37;;;2.20;;
7517;SDS011;3800;48.922;9.444;2023-11-21T01:07:00;4.50;;;1.80;;
7517;SDS011;3800;48.922;9.444;2023-11-21T01:09:28;4.53;;;1.87;;
7517;SDS011;3800;48.922;9.444;2023-11-21T01:11:57;2.30;;;2.03;;
7517;SDS011;3800;48.922;9.444;2023-11-21T01:14:25;2.77;;;1.80;;
7517;SDS011;3800;48.922;9.444;2023-11-21T01:16:53;2.23;;;1.83;;
7517;SDS011;3800;48.922;9.444;2023-11-21T01:19:21;2.93;;;1.87;;
7517;SDS011;3800;48.922;9.444;2023-11-21T01:21:51;2.83;;;2.10;;
7517;SDS011;3800;48.922;9.444;2023-11-21T01:24:19;4.77;;;2.20;;
7517;SDS011;3800;48.922;9.444;2023-11-21T01:26:47;4.87;;;2.00;;
7517;SDS011;3800;48.922;9.444;2023-11-21T01:29:15;4.93;;;2.30;;
7517;SDS011;3800;48.922;9.444;2023-11-21T01:31:44;6.57;;;2.40;;
7517;SDS011;3800;48.922;9.444;2023-11-21T01:34:12;4.87;;;2.10;;
7517;SDS011;3800;48.922;9.444;2023-11-21T01:36:40;3.40;;;1.80;;
7517;SDS011;3800;48.922;9.444;2023-11-21T01:39:09;5.07;;;2.20;;
7517;SDS011;3800;48.922;9.444;2023-11-21T01:41:37;5.57;;;2.20;;
7517;SDS011;3800;48.922;9.444;2023-11-21T01:44:06;5.10;;;1.97;;
7517;SDS011;3800;48.922;9.444;2023-11-21T01:46:34;4.50;;;2.20;;
7517;SDS011;3800;48.922;9.444;2023-11-21T01:49:02;5.50;;;2.50;;
7517;SDS011;3800;48.922;9.444;2023-11-21T01:51:30;5.97;;;2.40;;
7517;SDS011;3800;48.922;9.444;2023-11-21T01:53:59;5.27;;;2.50;;
7517;SDS011;3800;48.922;9.444;2023-11-21T01:56:27;5.20;;;2.33;;
7517;SDS011;3800;48.922;9.444;2023-11-21T01:58:56;6.30;;;2.23;;
7517;SDS011;3800;48.922;9.444;2023-11-21T02:01:24;5.60;;;2.23;;
7517;SDS011;3800;48.922;9.444;2023-11-21T02:03:53;5.27;;;2.20;;
7517;SDS011;3800;48.922;9.444;2023-11-21T02:06:21;5.93;;;2.40;;
7517;SDS011;3800;48.922;9.444;2023-11-21T02:08:49;4.73;;;2.03;;
7517;SDS011;3800;48.922;9.444;2023-11-21T02:11:18;4.13;;;2.10;;
7517;SDS011;3800;48.922;9.444;2023-11-21T02:13:46;4.73;;;2.30;;
7517;SDS011;3800;48.922;9.444;2023-11-21T02:16:15;4.03;;;2.53;;
7517;SDS011;3800;48.922;9.444;2023-11-21T02:18:43;3.83;;;2.53;;
7517;SDS011;3800;48.922;9.444;2023-11-21T02:21:12;6.07;;;2.40;;
7517;SDS011;3800;48.922;9.444;2023-11-21T02:23:40;3.77;;;2.30;;
7517;SDS011;3800;48.922;9.444;2023-11-21T02:26:09;5.13;;;2.00;;
7517;SDS011;3800;48.922;9.444;2023-11-21T02:28:37;4.73;;;2.20;;
7517;SDS011;3800;48.922;9.444;2023-11-21T02:31:05;4.13;;;1.70;;
7517;SDS011;3800;48.922;9.444;2023-11-21T02:33:33;6.57;;;1.97;;
7517;SDS011;3800;48.922;9.444;2023-11-21T02:36:02;4.77;;;2.07;;
7517;SDS011;3800;48.922;9.444;2023-11-21T02:38:30;4.87;;;2.07;;
7517;SDS011;3800;48.922;9.444;2023-11-21T02:40:58;7.40;;;2.70;;
7517;SDS011;3800;48.922;9.444;2023-11-21T02:43:27;5.50;;;2.47;;
7517;SDS011;3800;48.922;9.444;2023-11-21T02:45:56;3.50;;;2.10;;
7517;SDS011;3800;48.922;9.444;2023-11-21T02:48:24;6.00;;;2.40;;
7517;SDS011;3800;48.922;9.444;2023-11-21T02:50:53;4.03;;;2.43;;
7517;SDS011;3800;48.922;9.444;2023-11-21T02:53:22;4.03;;;2.03;;
7517;SDS011;3800;48.922;9.444;2023-11-21T02:55:51;2.97;;;2.10;;
7517;SDS011;3800;48.922;9.444;2023-11-21T02:58:19;4.63;;;2.50;;
7517;SDS011;3800;48.922;9.444;2023-11-21T03:00:48;6.27;;;2.27;;
7517;SDS011;3800;48.922;9.444;2023-11-21T03:03:17;4.97;;;1.90;;
7517;SDS011;3800;48.922;9.444;2023-11-21T03:05:45;4.97;;;2.23;;
7517;SDS011;3800;48.922;9.444;2023-11-21T03:08:13;3.50;;;2.10;;
7517;SDS011;3800;48.922;9.444;2023-11-21T03:10:42;3.43;;;2.13;;
7517;SDS011;3800;48.922;9.444;2023-11-21T03:13:10;5.03;;;2.70;;
7517;SDS011;3800;48.922;9.444;2023-11-21T03:15:38;6.73;;;2.40;;
7517;SDS011;3800;48.922;9.444;2023-11-21T03:18:06;5.87;;;2.43;;
7517;SDS011;3800;48.922;9.444;2023-11-21T03:20:35;4.43;;;2.23;;
7517;SDS011;3800;48.922;9.444;2023-11-21T03:23:03;3.57;;;2.20;;
7517;SDS011;3800;48.922;9.444;2023-11-21T03:25:31;3.40;;;2.20;;
7517;SDS011;3800;48.922;9.444;2023-11-21T03:27:59;3.67;;;2.00;;
7517;SDS011;3800;48.922;9.444;2023-11-21T03:30:28;5.80;;;2.00;;
7517;SDS011;3800;48.922;9.444;2023-11-21T03:32:56;3.47;;;1.77;;
7517;SDS011;3800;48.922;9.444;2023-11-21T03:35:24;2.93;;;2.30;;
7517;SDS011;3800;48.922;9.444;2023-11-21T03:37:53;4.50;;;2.53;;
7517;SDS011;3800;48.922;9.444;2023-11-21T03:40:21;4.13;;;2.60;;
7517;SDS011;3800;48.922;9.444;2023-11-21T03:42:49;4.70;;;2.57;;
7517;SDS011;3800;48.922;9.444;2023-11-21T03:45:17;5.33;;;2.40;;
7517;SDS011;3800;48.922;9.444;2023-11-21T03:47:46;3.07;;;2.10;;
7517;SDS011;3800;48.922;9.444;2023-11-21T03:50:15;3.70;;;1.83;;
7517;SDS011;3800;48.922;9.444;2023-11-21T03:52:43;3.83;;;1.67;;
7517;SDS011;3800;48.922;9.444;2023-11-21T03:55:11;3.40;;;1.83;;
7517;SDS011;3800;48.922;9.444;2023-11-21T03:57:39;2.80;;;1.67;;
7517;SDS011;3800;48.922;9.444;2023-11-21T04:00:08;3.07;;;1.67;;
7517;SDS011;3800;48.922;9.444;2023-11-21T04:02:37;3.77;;;1.67;;
7517;SDS011;3800;48.922;9.444;2023-11-21T04:05:05;2.17;;;1.47;;
7517;SDS011;3800;48.922;9.444;2023-11-21T04:07:33;5.17;;;2.80;;
7517;SDS011;3800;48.922;9.444;2023-11-21T04:10:03;1.97;;;1.87;;
7517;SDS011;3800;48.922;9.444;2023-11-21T04:12:32;3.00;;;1.70;;
7517;SDS011;3800;48.922;9.444;2023-11-21T04:15:00;3.93;;;1.80;;
7517;SDS011;3800;48.922;9.444;2023-11-21T04:17:29;2.97;;;1.60;;
7517;SDS011;3800;48.922;9.444;2023-11-21T04:19:58;3.17;;;1.63;;
7517;SDS011;3800;48.922;9.444;2023-11-21T04:22:26;3.07;;;1.77;;
7517;SDS011;3800;48.922;9.444;2023-11-21T04:24:55;2.03;;;1.70;;
7517;SDS011;3800;48.922;9.444;2023-11-21T04:27:23;2.63;;;1.60;;
7517;SDS011;3800;48.922;9.444;2023-11-21T04:29:52;4.83;;;2.10;;
7517;SDS011;3800;48.922;9.444;2023-11-21T04:32:21;4.73;;;2.07;;
7517;SDS011;3800;48.922;9.444;2023-11-21T04:34:49;4.80;;;2.00;;
7517;SDS011;3800;48.922;9.444;2023-11-21T04:37:17;5.63;;;2.20;;
7517;SDS011;3800;48.922;9.444;2023-11-21T04:39:45;3.03;;;1.60;;
7517;SDS011;3800;48.922;9.444;2023-11-21T04:42:14;3.27;;;1.80;;
7517;SDS011;3800;48.922;9.444;2023-11-21T04:44:43;4.57;;;1.83;;
7517;SDS011;3800;48.922;9.444;2023-11-21T04:47:12;2.83;;;1.90;;
7517;SDS011;3800;48.922;9.444;2023-11-21T04:49:42;4.90;;;2.00;;
7517;SDS011;3800;48.922;9.444;2023-11-21T04:52:10;3.17;;;2.00;;
7517;SDS011;3800;48.922;9.444;2023-11-21T04:54:39;3.70;;;1.60;;
7517;SDS011;3800;48.922;9.444;2023-11-21T04:57:07;4.30;;;1.70;;
7517;SDS011;3800;48.922;9.444;2023-11-21T04:59:35;3.30;;;1.80;;
7517;SDS011;3800;48.922;9.444;2023-11-21T05:02:04;3.47;;;2.33;;
7517;SDS011;3800;48.922;9.444;2023-11-21T05:04:32;6.43;;;2.60;;
7517;SDS011;3800;48.922;9.444;2023-11-21T05:07:01;3.90;;;2.13;;
7517;SDS011;3800;48.922;9.444;2023-11-21T05:09:30;5.33;;;2.00;;
7517;SDS011;3800;48.922;9.444;2023-11-21T05:11:58;3.40;;;1.80;;
7517;SDS011;3800;48.922;9.444;2023-11-21T05:14:27;3.93;;;1.67;;
7517;SDS011;3800;48.922;9.444;2023-11-21T05:16:56;6.20;;;1.80;;
7517;SDS011;3800;48.922;9.444;2023-11-21T05:19:24;2.70;;;1.63;;
7517;SDS011;3800;48.922;9.444;2023-11-21T05:21:52;2.73;;;1.60;;
7517;SDS011;3800;48.922;9.444;2023-11-21T05:24:20;4.53;;;1.60;;
7517;SDS011;3800;48.922;9.444;2023-11-21T05:26:49;2.93;;;1.77;;
7517;SDS011;3800;48.922;9.444;2023-11-21T05:29:17;1.60;;;1.40;;
7517;SDS011;3800;48.922;9.444;2023-11-21T05:31:45;3.70;;;1.70;;
7517;SDS011;3800;48.922;9.444;2023-11-21T05:34:13;2.90;;;1.50;;
7517;SDS011;3800;48.922;9.444;2023-11-21T05:36:43;3.53;;;2.00;;
7517;SDS011;3800;48.922;9.444;2023-11-21T05:39:11;4.10;;;2.53;;
7517;SDS011;3800;48.922;9.444;2023-11-21T05:41:39;5.27;;;3.53;;
7517;SDS011;3800;48.922;9.444;2023-11-21T05:44:08;6.67;;;3.30;;
7517;SDS011;3800;48.922;9.444;2023-11-21T05:46:36;4.70;;;3.10;;
7517;SDS011;3800;48.922;9.444;2023-11-21T05:49:04;4.07;;;2.93;;
7517;SDS011;3800;48.922;9.444;2023-11-21T05:51:33;3.53;;;2.70;;
7517;SDS011;3800;48.922;9.444;2023-11-21T05:54:01;3.03;;;2.17;;
7517;SDS011;3800;48.922;9.444;2023-11-21T05:56:29;3.47;;;2.60;;
7517;SDS011;3800;48.922;9.444;2023-11-21T05:58:57;4.90;;;2.57;;
7517;SDS011;3800;48.922;9.444;2023-11-21T06:01:26;3.80;;;2.50;;
7517;SDS011;3800;48.922;9.444;2023-11-21T06:03:55;2.80;;;2.10;;
7517;SDS011;3800;48.922;9.444;2023-11-21T06:06:23;3.13;;;1.90;;
7517;SDS011;3800;48.922;9.444;2023-11-21T06:08:51;3.90;;;2.17;;
7517;SDS011;3800;48.922;9.444;2023-11-21T06:11:19;2.73;;;1.90;;
7517;SDS011;3800;48.922;9.444;2023-11-21T06:13:48;3.50;;;2.00;;
7517;SDS011;3800;48.922;9.444;2023-11-21T06:16:16;2.67;;;1.83;;
7517;SDS011;3800;48.922;9.444;2023-11-21T06:18:45;3.27;;;2.17;;
7517;SDS011;3800;48.922;9.444;2023-11-21T06:21:13;2.90;;;1.77;;
7517;SDS011;3800;48.922;9.444;2023-11-21T06:23:42;3.17;;;1.50;;
7517;SDS011;3800;48.922;9.444;2023-11-21T06:26:10;2.20;;;1.90;;
7517;SDS011;3800;48.922;9.444;2023-11-21T06:28:38;2.13;;;1.57;;
7517;SDS011;3800;48.922;9.444;2023-11-21T06:31:06;1.90;;;1.70;;
7517;SDS011;3800;48.922;9.444;2023-11-21T06:33:35;2.30;;;2.10;;
7517;SDS011;3800;48.922;9.444;2023-11-21T06:36:04;2.33;;;2.13;;
7517;SDS011;3800;48.922;9.444;2023-11-21T06:38:32;2.93;;;2.20;;
7517;SDS011;3800;48.922;9.444;2023-11-21T06:41:00;3.30;;;2.17;;
7517;SDS011;3800;48.922;9.444;2023-11-21T06:43:29;1.97;;;1.87;;
7517;SDS011;3800;48.922;9.444;2023-11-21T06:45:57;3.53;;;2.23;;
7517;SDS011;3800;48.922;9.444;2023-11-21T06:48:25;5.40;;;2.40;;
7517;SDS011;3800;48.922;9.444;2023-11-21T06:50:53;2.93;;;2.00;;
7517;SDS011;3800;48.922;9.444;2023-11-21T06:53:22;2.03;;;1.83;;
7517;SDS011;3800;48.922;9.444;2023-11-21T06:55:50;3.77;;;2.40;;
7517;SDS011;3800;48.922;9.444;2023-11-21T06:58:18;3.87;;;2.47;;
7517;SDS011;3800;48.922;9.444;2023-11-21T07:00:47;4.77;;;2.67;;
7517;SDS011;3800;48.922;9.444;2023-11-21T07:05:39;3.73;;;3.17;;
7517;SDS011;3800;48.922;9.444;2023-11-21T07:08:08;3.70;;;2.93;;
7517;SDS011;3800;48.922;9.444;2023-11-21T07:10:36;2.60;;;2.07;;
7517;SDS011;3800;48.922;9.444;2023-11-21T07:13:05;2.93;;;1.93;;
7517;SDS011;3800;48.922;9.444;2023-11-21T07:15:33;3.33;;;1.97;;
7517;SDS011;3800;48.922;9.444;2023-11-21T07:18:02;1.87;;;1.70;;
7517;SDS011;3800;48.922;9.444;2023-11-21T07:20:31;2.50;;;1.70;;
7517;SDS011;3800;48.922;9.444;2023-11-21T07:22:59;1.73;;;1.60;;
7517;SDS011;3800;48.922;9.444;2023-11-21T07:25:27;2.03;;;1.60;;
7517;SDS011;3800;48.922;9.444;2023-11-21T07:27:56;3.27;;;1.87;;
7517;SDS011;3800;48.922;9.444;2023-11-21T07:30:24;3.80;;;1.80;;
7517;SDS011;3800;48.922;9.444;2023-11-21T07:32:53;2.90;;;1.83;;
7517;SDS011;3800;48.922;9.444;2023-11-21T07:35:21;2.80;;;1.83;;
7517;SDS011;3800;48.922;9.444;2023-11-21T07:37:50;2.20;;;2.00;;
7517;SDS011;3800;48.922;9.444;2023-11-21T07:40:18;3.17;;;2.07;;
7517;SDS011;3800;48.922;9.444;2023-11-21T07:42:46;4.73;;;2.07;;
7517;SDS011;3800;48.922;9.444;2023-11-21T07:45:14;2.80;;;1.90;;
7517;SDS011;3800;48.922;9.444;2023-11-21T07:47:43;2.60;;;2.40;;
7517;SDS011;3800;48.922;9.444;2023-11-21T07:50:11;3.63;;;2.30;;
7517;SDS011;3800;48.922;9.444;2023-11-21T07:52:41;3.50;;;2.43;;
7517;SDS011;3800;48.922;9.444;2023-11-21T07:55:09;2.63;;;2.10;;
7517;SDS011;3800;48.922;9.444;2023-11-21T07:57:37;2.77;;;2.27;;
7517;SDS011;3800;48.922;9.444;2023-11-21T08:00:06;4.00;;;2.63;;
7517;SDS011;3800;48.922;9.444;2023-11-21T08:02:35;3.30;;;2.67;;
7517;SDS011;3800;48.922;9.444;2023-11-21T08:05:03;3.30;;;2.47;;
7517;SDS011;3800;48.922;9.444;2023-11-21T08:07:31;3.93;;;2.50;;
7517;SDS011;3800;48.922;9.444;2023-11-21T08:10:00;2.40;;;2.20;;
7517;SDS011;3800;48.922;9.444;2023-11-21T08:12:30;3.80;;;2.10;;
7517;SDS011;3800;48.922;9.444;2023-11-21T08:14:58;3.07;;;2.10;;
7517;SDS011;3800;48.922;9.444;2023-11-21T08:17:27;3.27;;;2.43;;
7517;SDS011;3800;48.922;9.444;2023-11-21T08:19:55;2.37;;;2.10;;
7517;SDS011;3800;48.922;9.444;2023-11-21T08:22:23;2.17;;;1.97;;
7517;SDS011;3800;48.922;9.444;2023-11-21T08:24:52;3.10;;;2.30;;
7517;SDS011;3800;48.922;9.444;2023-11-21T08:27:20;4.33;;;2.67;;
7517;SDS011;3800;48.922;9.444;2023-11-21T08:29:48;3.50;;;3.13;;
7517;SDS011;3800;48.922;9.444;2023-11-21T08:32:17;4.43;;;3.30;;
7517;SDS011;3800;48.922;9.444;2023-11-21T08:34:45;4.73;;;4.23;;
7517;SDS011;3800;48.922;9.444;2023-11-21T08:37:14;5.23;;;3.10;;
7517;SDS011;3800;48.922;9.444;2023-11-21T08:39:44;3.40;;;2.87;;
7517;SDS011;3800;48.922;9.444;2023-11-21T08:42:13;4.97;;;2.80;;
7517;SDS011;3800;48.922;9.444;2023-11-21T08:44:41;2.20;;;2.00;;
7517;SDS011;3800;48.922;9.444;2023-11-21T08:47:10;4.00;;;2.60;;
7517;SDS011;3800;48.922;9.444;2023-11-21T08:49:39;2.77;;;2.50;;
7517;SDS011;3800;48.922;9.444;2023-11-21T08:52:08;4.10;;;2.27;;
7517;SDS011;3800;48.922;9.444;2023-11-21T08:54:36;4.70;;;2.23;;
7517;SDS011;3800;48.922;9.444;2023-11-21T08:57:04;2.70;;;2.37;;
7517;SDS011;3800;48.922;9.444;2023-11-21T08:59:33;3.10;;;2.30;;
7517;SDS011;3800;48.922;9.444;2023-11-21T09:02:02;5.20;;;2.30;;
7517;SDS011;3800;48.922;9.444;2023-11-21T09:04:30;4.07;;;2.63;;
7517;SDS011;3800;48.922;9.444;2023-11-21T09:06:59;3.67;;;2.50;;
7517;SDS011;3800;48.922;9.444;2023-11-21T09:09:27;4.27;;;3.00;;
7517;SDS011;3800;48.922;9.444;2023-11-21T09:11:56;3.40;;;2.67;;
7517;SDS011;3800;48.922;9.444;2023-11-21T09:14:24;3.43;;;2.90;;
7517;SDS011;3800;48.922;9.444;2023-11-21T09:16:53;3.63;;;3.07;;
7517;SDS011;3800;48.922;9.444;2023-11-21T09:19:22;3.70;;;2.80;;
7517;SDS011;3800;48.922;9.444;2023-11-21T09:21:50;5.90;;;3.27;;
7517;SDS011;3800;48.922;9.444;2023-11-21T09:24:20;3.40;;;2.77;;
7517;SDS011;3800;48.922;9.444;2023-11-21T09:26:49;4.70;;;3.00;;
7517;SDS011;3800;48.922;9.444;2023-11-21T09:29:17;3.03;;;2.73;;
7517;SDS011;3800;48.922;9.444;2023-11-21T09:31:46;3.13;;;2.73;;
7517;SDS011;3800;48.922;9.444;2023-11-21T09:34:14;5.30;;;3.00;;
7517;SDS011;3800;48.922;9.444;2023-11-21T09:36:45;3.30;;;2.77;;
7517;SDS011;3800;48.922;9.444;2023-11-21T09:39:15;4.90;;;2.90;;
7517;SDS011;3800;48.922;9.444;2023-11-21T09:41:50;2.80;;;2.60;;
7517;SDS011;3800;48.922;9.444;2023-11-21T09:44:18;4.20;;;2.90;;
7517;SDS011;3800;48.922;9.444;2023-11-21T09:46:47;3.20;;;2.90;;
7517;SDS011;3800;48.922;9.444;2023-11-21T09:49:15;5.30;;;3.37;;
7517;SDS011;3800;48.922;9.444;2023-11-21T09:51:45;4.50;;;3.67;;
7517;SDS011;3800;48.922;9.444;2023-11-21T09:54:15;3.50;;;2.73;;
7517;SDS011;3800;48.922;9.444;2023-11-21T09:56:43;3.00;;;2.67;;
7517;SDS011;3800;48.922;9.444;2023-11-21T09:59:13;2.87;;;2.67;;
7517;SDS011;3800;48.922;9.444;2023-11-21T10:01:42;2.80;;;2.57;;
7517;SDS011;3800;48.922;9.444;2023-11-21T10:04:10;3.10;;;2.40;;
7517;SDS011;3800;48.922;9.444;2023-11-21T10:06:39;3.33;;;2.33;;
7517;SDS011;3800;48.922;9.444;2023-11-21T10:09:09;2.03;;;1.93;;
7517;SDS011;3800;48.922;9.444;2023-11-21T10:11:40;2.67;;;2.47;;
7517;SDS011;3800;48.922;9.444;2023-11-21T10:14:08;2.83;;;2.63;;
7517;SDS011;3800;48.922;9.444;2023-11-21T10:16:39;3.03;;;2.83;;
7517;SDS011;3800;48.922;9.444;2023-11-21T10:19:09;6.60;;;3.50;;
7517;SDS011;3800;48.922;9.444;2023-11-21T10:21:37;2.80;;;2.33;;
7517;SDS011;3800;48.922;9.444;2023-11-21T10:24:05;3.33;;;2.97;;
7517;SDS011;3800;48.922;9.444;2023-11-21T10:26:34;3.53;;;2.17;;
7517;SDS011;3800;48.922;9.444;2023-11-21T10:29:02;2.13;;;1.90;;
7517;SDS011;3800;48.922;9.444;2023-11-21T10:31:31;2.97;;;2.00;;
7517;SDS011;3800;48.922;9.444;2023-11-21T10:36:41;4.87;;;2.10;;
7517;SDS011;3800;48.922;9.444;2023-11-21T10:39:09;2.97;;;2.13;;
7517;SDS011;3800;48.922;9.444;2023-11-21T10:41:37;2.40;;;2.20;;
7517;SDS011;3800;48.922;9.444;2023-11-21T10:44:05;3.60;;;2.00;;
7517;SDS011;3800;48.922;9.444;2023-11-21T10:46:35;2.40;;;2.00;;
7517;SDS011;3800;48.922;9.444;2023-11-21T10:49:03;2.37;;;1.90;;
7517;SDS011;3800;48.922;9.444;2023-11-21T10:51:32;3.57;;;2.60;;
7517;SDS011;3800;48.922;9.444;2023-11-21T10:54:00;3.00;;;2.70;;
7517;SDS011;3800;48.922;9.444;2023-11-21T10:56:28;4.43;;;2.70;;
7517;SDS011;3800;48.922;9.444;2023-11-21T10:58:56;4.30;;;2.53;;
7517;SDS011;3800;48.922;9.444;2023-11-21T11:01:26;2.20;;;2.00;;
7517;SDS011;3800;48.922;9.444;2023-11-21T11:03:55;2.73;;;2.00;;
7517;SDS011;3800;48.922;9.444;2023-11-21T11:06:23;2.10;;;1.90;;
7517;SDS011;3800;48.922;9.444;2023-11-21T11:08:52;1.80;;;1.70;;
7517;SDS011;3800;48.922;9.444;2023-11-21T11:11:21;2.10;;;1.43;;
7517;SDS011;3800;48.922;9.444;2023-11-21T11:13:49;1.97;;;1.63;;
7517;SDS011;3800;48.922;9.444;2023-11-21T11:16:17;3.37;;;1.70;;
7517;SDS011;3800;48.922;9.444;2023-11-21T11:18:46;2.23;;;1.67;;
7517;SDS011;3800;48.922;9.444;2023-11-21T11:24:04;3.20;;;1.93;;
7517;SDS011;3800;48.922;9.444;2023-11-21T11:35:17;2.70;;;2.10;;
7517;SDS011;3800;48.922;9.444;2023-11-21T11:37:46;3.13;;;2.20;;
7517;SDS011;3800;48.922;9.444;2023-11-21T11:40:15;2.67;;;2.20;;
7517;SDS011;3800;48.922;9.444;2023-11-21T11:45:25;2.20;;;1.60;;
7517;SDS011;3800;48.922;9.444;2023-11-21T11:47:56;2.00;;;1.87;;
7517;SDS011;3800;48.922;9.444;2023-11-21T11:50:24;1.90;;;1.70;;
7517;SDS011;3800;48.922;9.444;2023-11-21T11:52:53;3.30;;;2.20;;
7517;SDS011;3800;48.922;9.444;2023-11-21T11:55:21;2.00;;;1.90;;
7517;SDS011;3800;48.922;9.444;2023-11-21T11:57:50;2.67;;;2.40;;
7517;SDS011;3800;48.922;9.444;2023-11-21T12:00:18;2.60;;;2.40;;
7517;SDS011;3800;48.922;9.444;2023-11-21T12:02:49;2.90;;;2.70;;
7517;SDS011;3800;48.922;9.444;2023-11-21T12:05:27;3.43;;;2.20;;
7517;SDS011;3800;48.922;9.444;2023-11-21T12:07:56;2.70;;;2.20;;
7517;SDS011;3800;48.922;9.444;2023-11-21T12:10:25;2.17;;;1.87;;
7517;SDS011;3800;48.922;9.444;2023-11-21T12:12:53;2.30;;;2.10;;
7517;SDS011;3800;48.922;9.444;2023-11-21T12:15:22;1.97;;;1.80;;
7517;SDS011;3800;48.922;9.444;2023-11-21T12:17:51;2.23;;;1.60;;
7517;SDS011;3800;48.922;9.444;2023-11-21T12:20:20;2.10;;;1.80;;
7517;SDS011;3800;48.922;9.444;2023-11-21T12:22:50;2.00;;;1.80;;
7517;SDS011;3800;48.922;9.444;2023-11-21T12:25:19;1.83;;;1.70;;
7517;SDS011;3800;48.922;9.444;2023-11-21T12:27:49;2.13;;;1.60;;
7517;SDS011;3800;48.922;9.444;2023-11-21T12:30:20;2.90;;;1.50;;
7517;SDS011;3800;48.922;9.444;2023-11-21T12:32:49;2.70;;;1.50;;
7517;SDS011;3800;48.922;9.444;2023-11-21T12:35:18;1.70;;;1.60;;
7517;SDS011;3800;48.922;9.444;2023-11-21T12:37:47;1.67;;;1.57;;
7517;SDS011;3800;48.922;9.444;2023-11-21T12:40:16;2.17;;;1.97;;
7517;SDS011;3800;48.922;9.444;2023-11-21T12:42:45;3.00;;;1.90;;
7517;SDS011;3800;48.922;9.444;2023-11-21T12:45:19;2.00;;;1.90;;
7517;SDS011;3800;48.922;9.444;2023-11-21T12:47:48;2.43;;;2.23;;
7517;SDS011;3800;48.922;9.444;2023-11-21T12:50:19;2.50;;;2.30;;
7517;SDS011;3800;48.922;9.444;2023-11-21T12:52:51;2.40;;;2.20;;
7517;SDS011;3800;48.922;9.444;2023-11-21T12:55:20;2.53;;;2.33;;
7517;SDS011;3800;48.922;9.444;2023-11-21T12:57:51;2.80;;;2.60;;
7517;SDS011;3800;48.922;9.444;2023-11-21T13:00:19;3.73;;;2.90;;
7517;SDS011;3800;48.922;9.444;2023-11-21T13:02:53;3.17;;;2.83;;
7517;SDS011;3800;48.922;9.444;2023-11-21T13:05:24;3.90;;;3.30;;
7517;SDS011;3800;48.922;9.444;2023-11-21T13:08:01;4.00;;;3.70;;
7517;SDS011;3800;48.922;9.444;2023-11-21T13:10:30;4.00;;;3.70;;
7517;SDS011;3800;48.922;9.444;2023-11-21T13:12:58;3.80;;;3.50;;
7517;SDS011;3800;48.922;9.444;2023-11-21T13:15:27;5.87;;;5.10;;
7517;SDS011;3800;48.922;9.444;2023-11-21T13:17:54;6.17;;;4.37;;
7517;SDS011;3800;48.922;9.444;2023-11-21T13:20:24;5.50;;;4.00;;
7517;SDS011;3800;48.922;9.444;2023-11-21T13:22:53;4.13;;;3.83;;
7517;SDS011;3800;48.922;9.444;2023-11-21T13:25:24;4.37;;;3.97;;
7517;SDS011;3800;48.922;9.444;2023-11-21T13:27:55;1.80;;;1.70;;
7517;SDS011;3800;48.922;9.444;2023-11-21T13:30:23;4.03;;;2.33;;
7517;SDS011;3800;48.922;9.444;2023-11-21T13:32:54;3.30;;;2.60;;
7517;SDS011;3800;48.922;9.444;2023-11-21T13:35:23;3.63;;;2.60;;
7517;SDS011;3800;48.922;9.444;2023-11-21T13:38:02;3.10;;;2.80;;
7517;SDS011;3800;48.922;9.444;2023-11-21T13:40:26;1.80;;;1.70;;
7517;SDS011;3800;48.922;9.444;2023-11-21T13:42:54;2.17;;;1.97;;
7517;SDS011;3800;48.922;9.444;2023-11-21T13:45:22;1.90;;;1.70;;
7517;SDS011;3800;48.922;9.444;2023-11-21T13:47:52;1.97;;;1.20;;
7517;SDS011;3800;48.922;9.444;2023-11-21T13:50:22;1.47;;;1.37;;
7517;SDS011;3800;48.922;9.444;2023-11-21T13:53:00;1.17;;;1.07;;
7517;SDS011;3800;48.922;9.444;2023-11-21T13:55:30;1.57;;;1.20;;
7517;SDS011;3800;48.922;9.444;2023-11-21T13:57:59;1.53;;;1.07;;
7517;SDS011;3800;48.922;9.444;2023-11-21T14:00:28;1.30;;;1.20;;
7517;SDS011;3800;48.922;9.444;2023-11-21T14:03:02;1.43;;;1.13;;
7517;SDS011;3800;48.922;9.444;2023-11-21T14:05:31;1.77;;;1.13;;
7517;SDS011;3800;48.922;9.444;2023-11-21T14:07:59;1.20;;;1.10;;
7517;SDS011;3800;48.922;9.444;2023-11-21T14:10:29;1.20;;;1.10;;
7517;SDS011;3800;48.922;9.444;2023-11-21T14:13:05;1.20;;;1.10;;
7517;SDS011;3800;48.922;9.444;2023-11-21T14:15:33;3.23;;;1.20;;
7517;SDS011;3800;48.922;9.444;2023-11-21T14:18:01;1.20;;;1.10;;
7517;SDS011;3800;48.922;9.444;2023-11-21T14:20:30;1.27;;;1.17;;
7517;SDS011;3800;48.922;9.444;2023-11-21T14:22:59;1.60;;;1.30;;
7517;SDS011;3800;48.922;9.444;2023-11-21T14:25:27;2.33;;;1.20;;
7517;SDS011;3800;48.922;9.444;2023-11-21T14:27:55;1.53;;;1.43;;
7517;SDS011;3800;48.922;9.444;2023-11-21T14:30:24;2.00;;;1.60;;
7517;SDS011;3800;48.922;9.444;2023-11-21T14:32:52;1.80;;;1.57;;
7517;SDS011;3800;48.922;9.444;2023-11-21T14:35:21;2.00;;;1.80;;
7517;SDS011;3800;48.922;9.444;2023-11-21T14:37:49;1.90;;;1.70;;
7517;SDS011;3800;48.922;9.444;2023-11-21T14:40:18;2.13;;;1.93;;
7517;SDS011;3800;48.922;9.444;2023-11-21T14:42:47;2.10;;;1.90;;
7517;SDS011;3800;48.922;9.444;2023-11-21T14:45:15;2.20;;;2.00;;
7517;SDS011;3800;48.922;9.444;2023-11-21T14:47:43;3.27;;;2.00;;
7517;SDS011;3800;48.922;9.444;2023-11-21T14:50:12;3.50;;;3.20;;
7517;SDS011;3800;48.922;9.444;2023-11-21T14:52:46;2.50;;;2.30;;
7517;SDS011;3800;48.922;9.444;2023-11-21T14:55:25;2.80;;;2.60;;
7517;SDS011;3800;48.922;9.444;2023-11-21T14:58:03;3.37;;;3.03;;
7517;SDS011;3800;48.922;9.444;2023-11-21T15:00:33;3.40;;;3.10;;
7517;SDS011;3800;48.922;9.444;2023-11-21T15:03:08;4.47;;;3.30;;
7517;SDS011;3800;48.922;9.444;2023-11-21T15:05:37;3.77;;;3.47;;
7517;SDS011;3800;48.922;9.444;2023-11-21T15:08:07;4.87;;;3.10;;
7517;SDS011;3800;48.922;9.444;2023-11-21T15:10:35;4.20;;;3.80;;
7517;SDS011;3800;48.922;9.444;2023-11-21T15:13:06;6.10;;;3.97;;
7517;SDS011;3800;48.922;9.444;2023-11-21T15:15:34;4.63;;;3.57;;
7517;SDS011;3800;48.922;9.444;2023-11-21T15:18:03;5.83;;;4.10;;
7517;SDS011;3800;48.922;9.444;2023-11-21T15:20:31;4.43;;;4.03;;
7517;SDS011;3800;48.922;9.444;2023-11-21T15:22:59;6.07;;;4.70;;
7517;SDS011;3800;48.922;9.444;2023-11-21T15:25:27;6.60;;;5.10;;
7517;SDS011;3800;48.922;9.444;2023-11-21T15:27:55;6.17;;;4.47;;
7517;SDS011;3800;48.922;9.444;2023-11-21T15:30:25;7.33;;;5.53;;
7517;SDS011;3800;48.922;9.444;2023-11-21T15:32:53;13.57;;;10.33;;
7517;SDS011;3800;48.922;9.444;2023-11-21T15:35:21;8.40;;;6.20;;
7517;SDS011;3800;48.922;9.444;2023-11-21T15:37:49;6.30;;;5.37;;
7517;SDS011;3800;48.922;9.444;2023-11-21T15:40:18;10.73;;;6.83;;
7517;SDS011;3800;48.922;9.444;2023-11-21T15:42:46;5.20;;;4.80;;